sensor_id;sensor_type;location;lat;lon;timestamp;pressure;altitude;pressure_sealevel;temperature;humidity
14343;BME280;7255;53.596;9.960;2023-04-15T00:00:54;100706.50;;;8.48;nan
14343;BME280;7255;53.596;9.960;2023-04-15T00:03:21;100702.72;;;8.70;nan
14343;BME280;7255;53.596;9.960;2023-04-15T00:05:48;100696.62;;;8.29;nan
14343;BME280;7255;53.596;9.960;2023-04-15T00:08:14;100696.62;;;8.42;nan
14343;BME280;7255;53.596;9.960;2023-04-15T00:10:42;100687.59;;;8.23;nan
14343;BME280;7255;53.596;9.960;2023-04-15T00:13:10;100687.19;;;8.20;nan
14343;BME280;7255;53.596;9.960;2023-04-15T00:15:36;100690.94;;;8.12;nan
14343;BME280;7255;53.596;9.960;2023-04-15T00:18:03;100688.44;;;8.10;nan
14343;BME280;7255;53.596;9.960;2023-04-15T00:20:29;100683.91;;;8.11;nan
14343;BME280;7255;53.596;9.960;2023-04-15T00:22:57;100674.91;;;7.99;nan
14343;BME280;7255;53.596;9.960;2023-04-15T00:25:24;100672.41;;;8.04;nan
14343;BME280;7255;53.596;9.960;2023-04-15T00:27:52;100678.59;;;7.98;nan
14343;BME280;7255;53.596;9.960;2023-04-15T00:30:18;100677.34;;;8.07;nan
14343;BME280;7255;53.596;9.960;2023-04-15T00:32:45;100676.97;;;7.90;nan
14343;BME280;7255;53.596;9.960;2023-04-15T00:35:11;100670.41;;;7.86;nan
14343;BME280;7255;53.596;9.960;2023-04-15T00:37:37;100667.50;;;7.74;nan
14343;BME280;7255;53.596;9.960;2023-04-15T00:40:05;100678.19;;;8.01;nan
14343;BME280;7255;53.596;9.960;2023-04-15T00:42:35;100671.19;;;8.00;nan
14343;BME280;7255;53.596;9.960;2023-04-15T00:45:04;100662.16;;;7.81;nan
14343;BME280;7255;53.596;9.960;2023-04-15T00:47:32;100667.91;;;7.91;nan
14343;BME280;7255;53.596;9.960;2023-04-15T00:49:59;100664.59;;;8.02;nan
14343;BME280;7255;53.596;9.960;2023-04-15T00:52:25;100671.59;;;8.03;nan
14343;BME280;7255;53.596;9.960;2023-04-15T00:54:51;100665.81;;;8.06;nan
14343;BME280;7255;53.596;9.960;2023-04-15T00:57:18;100663.34;;;8.05;nan
14343;BME280;7255;53.596;9.960;2023-04-15T00:59:44;100664.59;;;7.89;nan
14343;BME280;7255;53.596;9.960;2023-04-15T01:02:12;100668.31;;;7.95;nan
14343;BME280;7255;53.596;9.960;2023-04-15T01:04:38;100678.16;;;8.07;nan
14343;BME280;7255;53.596;9.960;2023-04-15T01:07:04;100676.56;;;7.93;nan
14343;BME280;7255;53.596;9.960;2023-04-15T01:09:31;100670.41;;;7.79;nan
14343;BME280;7255;53.596;9.960;2023-04-15T01:11:57;100665.88;;;7.73;nan
14343;BME280;7255;53.596;9.960;2023-04-15T01:14:24;100667.50;;;7.81;nan
14343;BME280;7255;53.596;9.960;2023-04-15T01:16:51;100671.25;;;7.73;nan
14343;BME280;7255;53.596;9.960;2023-04-15T01:19:19;100669.16;;;7.68;nan
14343;BME280;7255;53.596;9.960;2023-04-15T01:21:46;100662.50;;;8.11;nan
14343;BME280;7255;53.596;9.960;2023-04-15T01:24:15;100673.66;;;8.08;nan
14343;BME280;7255;53.596;9.960;2023-04-15T01:26:44;100660.06;;;7.96;nan
14343;BME280;7255;53.596;9.960;2023-04-15T01:29:11;100664.59;;;7.96;nan
14343;BME280;7255;53.596;9.960;2023-04-15T01:31:38;100658.00;;;7.98;nan
14343;BME280;7255;53.596;9.960;2023-04-15T01:34:04;100660.91;;;7.90;nan
14343;BME280;7255;53.596;9.960;2023-04-15T01:36:31;100666.22;;;8.03;nan
14343;BME280;7255;53.596;9.960;2023-04-15T01:38:57;100648.91;;;8.19;nan
14343;BME280;7255;53.596;9.960;2023-04-15T01:41:24;100649.81;;;7.93;nan
14343;BME280;7255;53.596;9.960;2023-04-15T01:43:53;100649.31;;;8.23;nan
14343;BME280;7255;53.596;9.960;2023-04-15T01:46:20;100633.78;;;7.73;nan
14343;BME280;7255;53.596;9.960;2023-04-15T01:48:46;100648.16;;;7.92;nan
14343;BME280;7255;53.596;9.960;2023-04-15T01:51:12;100638.66;;;7.96;nan
14343;BME280;7255;53.596;9.960;2023-04-15T01:53:39;100634.56;;;7.87;nan
14343;BME280;7255;53.596;9.960;2023-04-15T01:56:06;100641.13;;;7.91;nan
14343;BME280;7255;53.596;9.960;2023-04-15T01:58:32;100632.09;;;7.92;nan
14343;BME280;7255;53.596;9.960;2023-04-15T02:01:00;100631.25;;;7.98;nan
14343;BME280;7255;53.596;9.960;2023-04-15T02:03:28;100636.22;;;7.88;nan
14343;BME280;7255;53.596;9.960;2023-04-15T02:05:54;100622.25;;;7.86;nan
14343;BME280;7255;53.596;9.960;2023-04-15T02:08:21;100544.00;;;7.97;nan
14343;BME280;7255;53.596;9.960;2023-04-15T02:10:47;100624.22;;;8.10;nan
14343;BME280;7255;53.596;9.960;2023-04-15T02:13:14;100618.06;;;7.97;nan
14343;BME280;7255;53.596;9.960;2023-04-15T02:15:46;100613.63;;;7.70;nan
14343;BME280;7255;53.596;9.960;2023-04-15T02:18:14;100617.72;;;7.93;nan
14343;BME280;7255;53.596;9.960;2023-04-15T02:20:40;100618.47;;;8.00;nan
14343;BME280;7255;53.596;9.960;2023-04-15T02:23:07;100627.09;;;8.09;nan
14343;BME280;7255;53.596;9.960;2023-04-15T02:25:33;100630.78;;;8.15;nan
14343;BME280;7255;53.596;9.960;2023-04-15T02:28:00;100621.28;;;8.32;nan
14343;BME280;7255;53.596;9.960;2023-04-15T02:30:26;100637.00;;;8.08;nan
14343;BME280;7255;53.596;9.960;2023-04-15T02:32:53;100630.84;;;8.01;nan
14343;BME280;7255;53.596;9.960;2023-04-15T02:35:21;100632.09;;;7.99;nan
14343;BME280;7255;53.596;9.960;2023-04-15T02:37:50;100629.63;;;7.97;nan
14343;BME280;7255;53.596;9.960;2023-04-15T02:40:17;100633.25;;;8.16;nan
14343;BME280;7255;53.596;9.960;2023-04-15T02:42:43;100631.25;;;8.12;nan
14343;BME280;7255;53.596;9.960;2023-04-15T02:45:10;100627.56;;;7.99;nan
14343;BME280;7255;53.596;9.960;2023-04-15T02:47:37;100633.31;;;8.03;nan
14343;BME280;7255;53.596;9.960;2023-04-15T02:50:07;100627.16;;;7.96;nan
14343;BME280;7255;53.596;9.960;2023-04-15T02:52:35;100627.16;;;8.02;nan
14343;BME280;7255;53.596;9.960;2023-04-15T02:55:01;100624.63;;;8.21;nan
14343;BME280;7255;53.596;9.960;2023-04-15T02:57:29;100568.63;;;8.13;nan
14343;BME280;7255;53.596;9.960;2023-04-15T02:59:55;100635.69;;;8.44;nan
14343;BME280;7255;53.596;9.960;2023-04-15T03:02:23;100630.31;;;8.44;nan
14343;BME280;7255;53.596;9.960;2023-04-15T03:04:49;100622.06;;;8.39;nan
14343;BME280;7255;53.596;9.960;2023-04-15T03:07:16;100631.97;;;8.32;nan
14343;BME280;7255;53.596;9.960;2023-04-15T03:09:44;100634.53;;;8.14;nan
14343;BME280;7255;53.596;9.960;2023-04-15T03:12:12;100624.72;;;7.81;nan
14343;BME280;7255;53.596;9.960;2023-04-15T03:14:38;100621.00;;;7.88;nan
14343;BME280;7255;53.596;9.960;2023-04-15T03:17:04;100616.06;;;7.92;nan
14343;BME280;7255;53.596;9.960;2023-04-15T03:19:30;100624.69;;;8.01;nan
14343;BME280;7255;53.596;9.960;2023-04-15T03:21:57;100630.00;;;8.07;nan
14343;BME280;7255;53.596;9.960;2023-04-15T03:24:23;100636.16;;;8.15;nan
14343;BME280;7255;53.596;9.960;2023-04-15T03:26:51;100626.72;;;8.05;nan
14343;BME280;7255;53.596;9.960;2023-04-15T03:29:17;100627.16;;;8.02;nan
14343;BME280;7255;53.596;9.960;2023-04-15T03:31:43;100629.56;;;8.17;nan
14343;BME280;7255;53.596;9.960;2023-04-15T03:34:10;100631.59;;;8.28;nan
14343;BME280;7255;53.596;9.960;2023-04-15T03:36:36;100636.94;;;8.28;nan
14343;BME280;7255;53.596;9.960;2023-04-15T03:39:03;100624.97;;;8.44;nan
14343;BME280;7255;53.596;9.960;2023-04-15T03:41:29;100619.69;;;8.11;nan
14343;BME280;7255;53.596;9.960;2023-04-15T03:43:58;100610.63;;;8.19;nan
14343;BME280;7255;53.596;9.960;2023-04-15T03:46:24;100618.81;;;8.31;nan
14343;BME280;7255;53.596;9.960;2023-04-15T03:48:50;100620.94;;;8.15;nan
14343;BME280;7255;53.596;9.960;2023-04-15T03:51:17;100622.94;;;8.26;nan
14343;BME280;7255;53.596;9.960;2023-04-15T03:53:43;100627.84;;;8.29;nan
14343;BME280;7255;53.596;9.960;2023-04-15T03:56:10;100628.81;;;7.90;nan
14343;BME280;7255;53.596;9.960;2023-04-15T03:58:36;100627.09;;;8.16;nan
14343;BME280;7255;53.596;9.960;2023-04-15T04:01:04;100624.63;;;8.07;nan
14343;BME280;7255;53.596;9.960;2023-04-15T04:03:30;100626.59;;;8.39;nan
14343;BME280;7255;53.596;9.960;2023-04-15T04:05:57;100625.03;;;8.18;nan
14343;BME280;7255;53.596;9.960;2023-04-15T04:08:23;100625.84;;;8.25;nan
14343;BME280;7255;53.596;9.960;2023-04-15T04:10:51;100613.13;;;8.07;nan
14343;BME280;7255;53.596;9.960;2023-04-15T04:13:18;100624.16;;;8.24;nan
14343;BME280;7255;53.596;9.960;2023-04-15T04:15:44;100636.06;;;8.41;nan
14343;BME280;7255;53.596;9.960;2023-04-15T04:18:12;100634.47;;;8.27;nan
14343;BME280;7255;53.596;9.960;2023-04-15T04:20:38;100623.31;;;8.43;nan
14343;BME280;7255;53.596;9.960;2023-04-15T04:23:05;100625.78;;;8.38;nan
14343;BME280;7255;53.596;9.960;2023-04-15T04:25:31;100632.38;;;8.36;nan
14343;BME280;7255;53.596;9.960;2023-04-15T04:27:58;100637.81;;;8.16;nan
14343;BME280;7255;53.596;9.960;2023-04-15T04:30:24;100645.16;;;8.27;nan
14343;BME280;7255;53.596;9.960;2023-04-15T04:32:50;100638.09;;;8.53;nan
14343;BME280;7255;53.596;9.960;2023-04-15T04:35:18;100637.22;;;8.59;nan
14343;BME280;7255;53.596;9.960;2023-04-15T04:37:44;100636.13;;;8.28;nan
14343;BME280;7255;53.596;9.960;2023-04-15T04:40:11;100641.03;;;8.31;nan
14343;BME280;7255;53.596;9.960;2023-04-15T04:42:38;100645.12;;;8.40;nan
14343;BME280;7255;53.596;9.960;2023-04-15T04:45:05;100638.59;;;8.23;nan
14343;BME280;7255;53.596;9.960;2023-04-15T04:47:32;100641.88;;;8.25;nan
14343;BME280;7255;53.596;9.960;2023-04-15T04:49:58;100641.03;;;8.31;nan
14343;BME280;7255;53.596;9.960;2023-04-15T04:52:26;100641.47;;;8.28;nan
14343;BME280;7255;53.596;9.960;2023-04-15T04:54:52;100635.72;;;8.18;nan
14343;BME280;7255;53.596;9.960;2023-04-15T04:57:19;100651.28;;;8.47;nan
14343;BME280;7255;53.596;9.960;2023-04-15T04:59:45;100644.31;;;8.33;nan
14343;BME280;7255;53.596;9.960;2023-04-15T05:02:11;100638.59;;;8.23;nan
14343;BME280;7255;53.596;9.960;2023-04-15T05:04:37;100632.41;;;8.22;nan
14343;BME280;7255;53.596;9.960;2023-04-15T05:07:05;100633.66;;;8.26;nan
14343;BME280;7255;53.596;9.960;2023-04-15T05:09:33;100642.06;;;8.43;nan
14343;BME280;7255;53.596;9.960;2023-04-15T05:12:00;100636.91;;;8.42;nan
14343;BME280;7255;53.596;9.960;2023-04-15T05:14:27;100636.53;;;8.25;nan
14343;BME280;7255;53.596;9.960;2023-04-15T05:16:53;100627.09;;;8.16;nan
14343;BME280;7255;53.596;9.960;2023-04-15T05:19:20;100634.53;;;8.14;nan
14343;BME280;7255;53.596;9.960;2023-04-15T05:21:46;100646.03;;;8.14;nan
14343;BME280;7255;53.596;9.960;2023-04-15T05:24:12;100640.59;;;8.47;nan
14343;BME280;7255;53.596;9.960;2023-04-15T05:26:40;100635.66;;;8.38;nan
14343;BME280;7255;53.596;9.960;2023-04-15T05:29:06;100644.31;;;8.46;nan
14343;BME280;7255;53.596;9.960;2023-04-15T05:31:33;100640.19;;;8.44;nan
14343;BME280;7255;53.596;9.960;2023-04-15T05:33:59;100635.22;;;8.47;nan
14343;BME280;7255;53.596;9.960;2023-04-15T05:36:25;100635.25;;;8.34;nan
14343;BME280;7255;53.596;9.960;2023-04-15T05:38:52;100648.47;;;8.22;nan
14343;BME280;7255;53.596;9.960;2023-04-15T05:41:19;100648.03;;;8.32;nan
14343;BME280;7255;53.596;9.960;2023-04-15T05:43:47;100642.31;;;8.22;nan
14343;BME280;7255;53.596;9.960;2023-04-15T05:46:13;100655.81;;;8.40;nan
14343;BME280;7255;53.596;9.960;2023-04-15T05:48:39;100653.38;;;8.45;nan
14343;BME280;7255;53.596;9.960;2023-04-15T05:51:06;100659.16;;;8.36;nan
14343;BME280;7255;53.596;9.960;2023-04-15T05:53:32;100645.16;;;8.27;nan
14343;BME280;7255;53.596;9.960;2023-04-15T05:55:58;100647.66;;;8.22;nan
14343;BME280;7255;53.596;9.960;2023-04-15T05:58:25;100656.69;;;8.27;nan
14343;BME280;7255;53.596;9.960;2023-04-15T06:00:53;100661.53;;;8.64;nan
14343;BME280;7255;53.596;9.960;2023-04-15T06:03:19;100658.72;;;8.45;nan
14343;BME280;7255;53.596;9.960;2023-04-15T06:05:47;100659.97;;;8.43;nan
14343;BME280;7255;53.596;9.960;2023-04-15T06:08:13;100655.34;;;8.63;nan
14343;BME280;7255;53.596;9.960;2023-04-15T06:10:39;100643.09;;;8.36;nan
14343;BME280;7255;53.596;9.960;2023-04-15T06:13:06;100664.50;;;8.42;nan
14343;BME280;7255;53.596;9.960;2023-04-15T06:15:32;100669.03;;;8.42;nan
14343;BME280;7255;53.596;9.960;2023-04-15T06:18:00;100659.56;;;8.33;nan
14343;BME280;7255;53.596;9.960;2023-04-15T06:20:27;100673.16;;;8.31;nan
14343;BME280;7255;53.596;9.960;2023-04-15T06:22:53;100670.69;;;8.36;nan
14343;BME280;7255;53.596;9.960;2023-04-15T06:25:19;100671.50;;;8.50;nan
14343;BME280;7255;53.596;9.960;2023-04-15T06:27:46;100678.38;;;8.78;nan
14343;BME280;7255;53.596;9.960;2023-04-15T06:30:12;100685.00;;;8.69;nan
14343;BME280;7255;53.596;9.960;2023-04-15T06:32:38;100689.91;;;8.72;nan
14343;BME280;7255;53.596;9.960;2023-04-15T06:35:07;100689.16;;;8.58;nan
14343;BME280;7255;53.596;9.960;2023-04-15T06:37:33;100694.94;;;8.55;nan
14343;BME280;7255;53.596;9.960;2023-04-15T06:40:00;100692.88;;;8.57;nan
14343;BME280;7255;53.596;9.960;2023-04-15T06:42:26;100694.84;;;8.81;nan
14343;BME280;7255;53.596;9.960;2023-04-15T06:44:53;100698.53;;;8.80;nan
14343;BME280;7255;53.596;9.960;2023-04-15T06:47:19;100687.47;;;8.70;nan
14343;BME280;7255;53.596;9.960;2023-04-15T06:49:46;100686.31;;;8.53;nan
14343;BME280;7255;53.596;9.960;2023-04-15T06:52:13;100690.03;;;8.45;nan
14343;BME280;7255;53.596;9.960;2023-04-15T06:54:40;100701.91;;;8.69;nan
14343;BME280;7255;53.596;9.960;2023-04-15T06:57:07;100686.62;;;8.76;nan
14343;BME280;7255;53.596;9.960;2023-04-15T06:59:33;100692.38;;;8.73;nan
14343;BME280;7255;53.596;9.960;2023-04-15T07:02:00;100697.41;;;8.56;nan
14343;BME280;7255;53.596;9.960;2023-04-15T07:04:26;100698.59;;;8.67;nan
14343;BME280;7255;53.596;9.960;2023-04-15T07:06:52;100702.38;;;8.53;nan
14343;BME280;7255;53.596;9.960;2023-04-15T07:09:21;100712.59;;;8.69;nan
14343;BME280;7255;53.596;9.960;2023-04-15T07:11:47;100717.56;;;8.72;nan
14343;BME280;7255;53.596;9.960;2023-04-15T07:14:13;100709.75;;;8.64;nan
14343;BME280;7255;53.596;9.960;2023-04-15T07:16:40;100714.28;;;8.63;nan
14343;BME280;7255;53.596;9.960;2023-04-15T07:19:06;100713.41;;;8.76;nan
14343;BME280;7255;53.596;9.960;2023-04-15T07:21:32;100712.59;;;8.69;nan
14343;BME280;7255;53.596;9.960;2023-04-15T07:23:59;100725.34;;;8.80;nan
14343;BME280;7255;53.596;9.960;2023-04-15T07:26:26;100726.53;;;8.84;nan
14343;BME280;7255;53.596;9.960;2023-04-15T07:28:53;100723.47;;;8.81;nan
14343;BME280;7255;53.596;9.960;2023-04-15T07:31:19;100730.28;;;8.83;nan
14343;BME280;7255;53.596;9.960;2023-04-15T07:33:46;100723.25;;;8.89;nan
14343;BME280;7255;53.596;9.960;2023-04-15T07:36:12;100730.53;;;9.14;nan
14343;BME280;7255;53.596;9.960;2023-04-15T07:38:39;100727.09;;;9.38;nan
14343;BME280;7255;53.596;9.960;2023-04-15T07:41:05;100727.72;;;9.02;nan
14343;BME280;7255;53.596;9.960;2023-04-15T07:43:33;100729.84;;;8.86;nan
14343;BME280;7255;53.596;9.960;2023-04-15T07:45:59;100737.25;;;8.91;nan
14343;BME280;7255;53.596;9.960;2023-04-15T07:48:26;100739.63;;;9.06;nan
14343;BME280;7255;53.596;9.960;2023-04-15T07:50:52;100735.09;;;9.06;nan
14343;BME280;7255;53.596;9.960;2023-04-15T07:53:18;100735.97;;;8.94;nan
14343;BME280;7255;53.596;9.960;2023-04-15T07:55:45;100736.44;;;8.91;nan
14343;BME280;7255;53.596;9.960;2023-04-15T07:58:11;100738.44;;;9.02;nan
14343;BME280;7255;53.596;9.960;2023-04-15T08:00:39;100743.69;;;9.22;nan
14343;BME280;7255;53.596;9.960;2023-04-15T08:03:06;100750.81;;;9.03;nan
14343;BME280;7255;53.596;9.960;2023-04-15T08:05:32;100753.22;;;9.11;nan
14343;BME280;7255;53.596;9.960;2023-04-15T08:07:58;100738.81;;;9.05;nan
14343;BME280;7255;53.596;9.960;2023-04-15T08:10:25;100751.56;;;9.10;nan
14343;BME280;7255;53.596;9.960;2023-04-15T08:12:51;100749.53;;;9.05;nan
14343;BME280;7255;53.596;9.960;2023-04-15T08:15:18;100750.34;;;9.06;nan
14343;BME280;7255;53.596;9.960;2023-04-15T08:17:47;100760.59;;;9.22;nan
14343;BME280;7255;53.596;9.960;2023-04-15T08:20:13;100768.38;;;9.31;nan
14343;BME280;7255;53.596;9.960;2023-04-15T08:22:40;100764.75;;;9.18;nan
14343;BME280;7255;53.596;9.960;2023-04-15T08:25:07;100760.16;;;9.25;nan
14343;BME280;7255;53.596;9.960;2023-04-15T08:27:34;100773.66;;;9.44;nan
14343;BME280;7255;53.596;9.960;2023-04-15T08:30:00;100777.47;;;9.30;nan
14343;BME280;7255;53.596;9.960;2023-04-15T08:32:27;100772.28;;;9.67;nan
14343;BME280;7255;53.596;9.960;2023-04-15T08:34:55;100767.44;;;9.50;nan
14343;BME280;7255;53.596;9.960;2023-04-15T08:37:21;100776.03;;;9.59;nan
14343;BME280;7255;53.596;9.960;2023-04-15T08:39:48;100779.47;;;9.98;nan
14343;BME280;7255;53.596;9.960;2023-04-15T08:42:15;100787.56;;;10.16;nan
14343;BME280;7255;53.596;9.960;2023-04-15T08:44:42;100782.37;;;9.96;nan
14343;BME280;7255;53.596;9.960;2023-04-15T08:47:12;100792.22;;;10.02;nan
14343;BME280;7255;53.596;9.960;2023-04-15T08:49:39;100792.22;;;10.02;nan
14343;BME280;7255;53.596;9.960;2023-04-15T08:52:07;100785.53;;;10.12;nan
14343;BME280;7255;53.596;9.960;2023-04-15T08:54:34;100788.75;;;9.70;nan
14343;BME280;7255;53.596;9.960;2023-04-15T08:57:02;100784.69;;;9.61;nan
14343;BME280;7255;53.596;9.960;2023-04-15T08:59:29;100797.34;;;9.86;nan
14343;BME280;7255;53.596;9.960;2023-04-15T09:01:56;100783.25;;;9.90;nan
14343;BME280;7255;53.596;9.960;2023-04-15T09:04:22;100789.56;;;10.02;nan
14343;BME280;7255;53.596;9.960;2023-04-15T09:06:48;100798.69;;;10.20;nan
14343;BME280;7255;53.596;9.960;2023-04-15T09:09:17;100804.38;;;10.30;nan
14343;BME280;7255;53.596;9.960;2023-04-15T09:11:43;100804.16;;;10.07;nan
14343;BME280;7255;53.596;9.960;2023-04-15T09:14:10;100812.87;;;10.52;nan
14343;BME280;7255;53.596;9.960;2023-04-15T09:16:56;100814.16;;;10.50;nan
14343;BME280;7255;53.596;9.960;2023-04-15T09:19:23;100823.09;;;10.62;nan
14343;BME280;7255;53.596;9.960;2023-04-15T09:21:50;100816.47;;;10.65;nan
14343;BME280;7255;53.596;9.960;2023-04-15T09:24:18;100810.50;;;10.44;nan
14343;BME280;7255;53.596;9.960;2023-04-15T09:26:46;100819.91;;;10.53;nan
14343;BME280;7255;53.596;9.960;2023-04-15T09:29:12;100817.88;;;10.86;nan
14343;BME280;7255;53.596;9.960;2023-04-15T09:31:39;100814.59;;;10.65;nan
14343;BME280;7255;53.596;9.960;2023-04-15T09:34:06;100830.56;;;10.97;nan
14343;BME280;7255;53.596;9.960;2023-04-15T09:36:50;100831.69;;;11.08;nan
14343;BME280;7255;53.596;9.960;2023-04-15T09:39:19;100830.56;;;11.34;nan
14343;BME280;7255;53.596;9.960;2023-04-15T09:41:45;100832.44;;;11.75;nan
14343;BME280;7255;53.596;9.960;2023-04-15T09:44:21;100835.19;;;11.87;nan
14343;BME280;7255;53.596;9.960;2023-04-15T09:46:47;100835.50;;;12.21;nan
14343;BME280;7255;53.596;9.960;2023-04-15T09:49:14;100838.72;;;12.00;nan
14343;BME280;7255;53.596;9.960;2023-04-15T09:51:42;100829.97;;;12.04;nan
14343;BME280;7255;53.596;9.960;2023-04-15T09:54:09;100842.31;;;12.36;nan
14343;BME280;7255;53.596;9.960;2023-04-15T09:56:38;100841.09;;;12.08;nan
14343;BME280;7255;53.596;9.960;2023-04-15T09:59:06;100836.91;;;12.36;nan
14343;BME280;7255;53.596;9.960;2023-04-15T10:01:33;100843.25;;;12.29;nan
14343;BME280;7255;53.596;9.960;2023-04-15T10:04:02;100852.12;;;12.18;nan
14343;BME280;7255;53.596;9.960;2023-04-15T10:06:28;100855.66;;;12.54;nan
14343;BME280;7255;53.596;9.960;2023-04-15T10:08:56;100858.25;;;12.25;nan
14343;BME280;7255;53.596;9.960;2023-04-15T10:11:23;100850.37;;;12.24;nan
14343;BME280;7255;53.596;9.960;2023-04-15T10:13:51;100852.59;;;12.15;nan
14343;BME280;7255;53.596;9.960;2023-04-15T10:16:19;100858.91;;;12.32;nan
14343;BME280;7255;53.596;9.960;2023-04-15T10:18:47;100866.47;;;13.18;nan
14343;BME280;7255;53.596;9.960;2023-04-15T10:21:16;100874.44;;;13.37;nan
14343;BME280;7255;53.596;9.960;2023-04-15T10:23:44;100878.81;;;13.66;nan
14343;BME280;7255;53.596;9.960;2023-04-15T10:26:11;100872.06;;;13.52;nan
14343;BME280;7255;53.596;9.960;2023-04-15T10:28:38;100876.06;;;13.95;nan
14343;BME280;7255;53.596;9.960;2023-04-15T10:31:06;100881.75;;;13.65;nan
14343;BME280;7255;53.596;9.960;2023-04-15T10:33:34;100870.34;;;13.34;nan
14343;BME280;7255;53.596;9.960;2023-04-15T10:36:00;100880.59;;;13.61;nan
14343;BME280;7255;53.596;9.960;2023-04-15T10:38:31;100880.34;;;13.34;nan
14343;BME280;7255;53.596;9.960;2023-04-15T10:41:11;100876.59;;;13.52;nan
14343;BME280;7255;53.596;9.960;2023-04-15T10:43:38;100874.31;;;13.43;nan
14343;BME280;7255;53.596;9.960;2023-04-15T10:46:05;100880.38;;;13.51;nan
14343;BME280;7255;53.596;9.960;2023-04-15T10:48:33;100881.75;;;13.65;nan
14343;BME280;7255;53.596;9.960;2023-04-15T10:51:00;100888.50;;;13.79;nan
14343;BME280;7255;53.596;9.960;2023-04-15T10:53:28;100880.53;;;14.18;nan
14343;BME280;7255;53.596;9.960;2023-04-15T10:55:56;100876.25;;;14.22;nan
14343;BME280;7255;53.596;9.960;2023-04-15T10:58:22;100881.00;;;14.15;nan
14343;BME280;7255;53.596;9.960;2023-04-15T11:00:50;100882.97;;;14.71;nan
14343;BME280;7255;53.596;9.960;2023-04-15T11:03:36;100895.63;;;15.26;nan
14343;BME280;7255;53.596;9.960;2023-04-15T11:06:03;100884.28;;;15.29;nan
14343;BME280;7255;53.596;9.960;2023-04-15T11:08:52;100899.62;;;15.90;nan
14343;BME280;7255;53.596;9.960;2023-04-15T11:11:19;100893.00;;;15.31;nan
14343;BME280;7255;53.596;9.960;2023-04-15T11:13:47;100898.13;;;15.55;nan
14343;BME280;7255;53.596;9.960;2023-04-15T11:16:14;100893.09;;;15.42;nan
14343;BME280;7255;53.596;9.960;2023-04-15T11:18:52;100906.84;;;15.57;nan
14343;BME280;7255;53.596;9.960;2023-04-15T11:21:23;100909.22;;;15.75;nan
14343;BME280;7255;53.596;9.960;2023-04-15T11:23:50;100905.19;;;15.56;nan
14343;BME280;7255;53.596;9.960;2023-04-15T11:26:16;100898.66;;;15.52;nan
14343;BME280;7255;53.596;9.960;2023-04-15T11:28:44;100913.88;;;15.14;nan
14343;BME280;7255;53.596;9.960;2023-04-15T11:31:12;100909.91;;;15.21;nan
14343;BME280;7255;53.596;9.960;2023-04-15T11:33:46;100904.25;;;15.45;nan
14343;BME280;7255;53.596;9.960;2023-04-15T11:36:13;100910.03;;;15.10;nan
14343;BME280;7255;53.596;9.960;2023-04-15T11:38:41;100917.06;;;14.72;nan
14343;BME280;7255;53.596;9.960;2023-04-15T11:41:08;100923.97;;;14.62;nan
14343;BME280;7255;53.596;9.960;2023-04-15T11:43:34;100927.06;;;14.54;nan
14343;BME280;7255;53.596;9.960;2023-04-15T11:46:01;100924.44;;;14.59;nan
14343;BME280;7255;53.596;9.960;2023-04-15T11:48:31;100926.41;;;14.64;nan
14343;BME280;7255;53.596;9.960;2023-04-15T11:51:00;100938.69;;;14.38;nan
14343;BME280;7255;53.596;9.960;2023-04-15T11:53:35;100929.97;;;14.36;nan
14343;BME280;7255;53.596;9.960;2023-04-15T11:56:02;100949.16;;;14.34;nan
14343;BME280;7255;53.596;9.960;2023-04-15T11:58:29;100939.50;;;14.55;nan
14343;BME280;7255;53.596;9.960;2023-04-15T12:00:56;100949.03;;;14.58;nan
14343;BME280;7255;53.596;9.960;2023-04-15T12:03:26;100956.75;;;14.66;nan
14343;BME280;7255;53.596;9.960;2023-04-15T12:06:11;100952.41;;;15.21;nan
14343;BME280;7255;53.596;9.960;2023-04-15T12:11:34;100944.56;;;15.02;nan
14343;BME280;7255;53.596;9.960;2023-04-15T12:14:06;100946.91;;;14.60;nan
14343;BME280;7255;53.596;9.960;2023-04-15T12:16:34;100954.91;;;14.38;nan
14343;BME280;7255;53.596;9.960;2023-04-15T12:19:04;100954.06;;;14.37;nan
14343;BME280;7255;53.596;9.960;2023-04-15T12:21:35;100970.47;;;14.31;nan
14343;BME280;7255;53.596;9.960;2023-04-15T12:24:04;100965.53;;;14.28;nan
14343;BME280;7255;53.596;9.960;2023-04-15T12:26:34;100967.75;;;14.31;nan
14343;BME280;7255;53.596;9.960;2023-04-15T12:29:01;100965.22;;;14.41;nan
14343;BME280;7255;53.596;9.960;2023-04-15T12:31:28;100974.22;;;14.30;nan
14343;BME280;7255;53.596;9.960;2023-04-15T12:33:55;100983.56;;;14.39;nan
14343;BME280;7255;53.596;9.960;2023-04-15T12:36:21;100992.94;;;14.65;nan
14343;BME280;7255;53.596;9.960;2023-04-15T12:38:49;100991.53;;;14.17;nan
14343;BME280;7255;53.596;9.960;2023-04-15T12:41:16;100987.56;;;13.91;nan
14343;BME280;7255;53.596;9.960;2023-04-15T12:43:43;100990.41;;;14.13;nan
14343;BME280;7255;53.596;9.960;2023-04-15T12:46:09;101003.37;;;14.44;nan
14343;BME280;7255;53.596;9.960;2023-04-15T12:48:36;100994.81;;;14.19;nan
14343;BME280;7255;53.596;9.960;2023-04-15T12:51:02;101002.47;;;14.10;nan
14343;BME280;7255;53.596;9.960;2023-04-15T12:53:28;101002.38;;;14.34;nan
14343;BME280;7255;53.596;9.960;2023-04-15T12:55:56;101008.22;;;14.71;nan
14343;BME280;7255;53.596;9.960;2023-04-15T12:58:23;101012.94;;;14.98;nan
14343;BME280;7255;53.596;9.960;2023-04-15T13:00:49;101008.03;;;14.78;nan
14343;BME280;7255;53.596;9.960;2023-04-15T13:03:15;101013.88;;;14.41;nan
14343;BME280;7255;53.596;9.960;2023-04-15T13:05:42;101014.91;;;14.69;nan
14343;BME280;7255;53.596;9.960;2023-04-15T13:08:08;101018.03;;;14.60;nan
14343;BME280;7255;53.596;9.960;2023-04-15T13:10:35;101018.03;;;14.94;nan
14343;BME280;7255;53.596;9.960;2023-04-15T13:13:03;101019.84;;;15.06;nan
14343;BME280;7255;53.596;9.960;2023-04-15T13:15:30;101003.59;;;15.06;nan
14343;BME280;7255;53.596;9.960;2023-04-15T13:17:56;101018.84;;;15.12;nan
14343;BME280;7255;53.596;9.960;2023-04-15T13:20:23;101024.06;;;15.35;nan
14343;BME280;7255;53.596;9.960;2023-04-15T13:22:51;101027.53;;;15.14;nan
14343;BME280;7255;53.596;9.960;2023-04-15T13:25:17;101034.25;;;15.28;nan
14343;BME280;7255;53.596;9.960;2023-04-15T13:27:43;101032.69;;;15.15;nan
14343;BME280;7255;53.596;9.960;2023-04-15T13:30:12;101022.12;;;15.14;nan
14343;BME280;7255;53.596;9.960;2023-04-15T13:32:38;101028.69;;;15.01;nan